createdAt,value
2024-02-04T00:00:18.435Z,14.43
2024-02-04T00:02:46.350Z,22.80
2024-02-04T00:05:14.317Z,12.60
2024-02-04T00:07:42.321Z,19.27
2024-02-04T00:10:10.813Z,18.23
2024-02-04T00:12:38.983Z,16.20
2024-02-04T00:15:09.272Z,17.30
2024-02-04T00:17:37.594Z,26.60
2024-02-04T00:20:07.502Z,25.07
2024-02-04T00:22:35.920Z,13.57
2024-02-04T00:25:06.249Z,18.03
2024-02-04T00:27:34.336Z,16.77
2024-02-04T00:30:02.403Z,16.50
2024-02-04T00:32:31.915Z,18.37
2024-02-04T00:34:59.933Z,15.00
2024-02-04T00:37:27.968Z,21.47
2024-02-04T00:39:55.906Z,16.97
2024-02-04T00:42:23.944Z,14.30
2024-02-04T00:44:51.858Z,18.80
2024-02-04T00:47:19.783Z,14.47
2024-02-04T00:49:49.229Z,12.70
2024-02-04T00:52:17.334Z,17.07
2024-02-04T00:54:45.362Z,15.37
2024-02-04T00:57:13.259Z,14.93
2024-02-04T00:59:41.153Z,12.23
2024-02-04T01:02:08.991Z,15.33
2024-02-04T01:04:36.951Z,14.40
2024-02-04T01:07:06.335Z,11.30
2024-02-04T01:09:34.306Z,13.03
2024-02-04T01:12:02.247Z,14.73
2024-02-04T01:14:30.185Z,14.80
2024-02-04T01:16:58.040Z,13.67
2024-02-04T01:19:26.098Z,12.30
2024-02-04T01:21:54.145Z,14.20
2024-02-04T01:24:23.511Z,14.07
2024-02-04T01:26:51.621Z,7.57
2024-02-04T01:29:19.583Z,13.23
2024-02-04T01:31:47.465Z,11.37
2024-02-04T01:34:15.837Z,11.50
2024-02-04T01:36:44.029Z,10.17
2024-02-04T01:39:12.512Z,7.33
2024-02-04T01:41:41.818Z,11.17
2024-02-04T01:44:09.801Z,12.97
2024-02-04T01:46:37.794Z,11.73
2024-02-04T01:49:06.683Z,17.13
2024-02-04T01:51:34.986Z,9.60
2024-02-04T01:54:03.259Z,14.10
2024-02-04T01:56:32.343Z,12.33
2024-02-04T01:59:02.381Z,15.53
2024-02-04T02:01:30.501Z,10.10
2024-02-04T02:03:58.653Z,8.97
2024-02-04T02:06:27.678Z,10.93
2024-02-04T02:09:00.766Z,10.73
2024-02-04T02:11:40.072Z,12.40
2024-02-04T02:14:15.943Z,9.57
2024-02-04T02:16:45.593Z,9.20
2024-02-04T02:19:30.173Z,12.57
2024-02-04T02:22:04.479Z,13.20
2024-02-04T02:24:36.314Z,10.00
2024-02-04T02:27:06.750Z,11.83
2024-02-04T02:29:34.723Z,10.83
2024-02-04T02:32:07.045Z,9.37
2024-02-04T02:34:39.131Z,9.23
2024-02-04T02:37:20.371Z,9.93
2024-02-04T02:39:53.741Z,12.60
2024-02-04T02:42:24.661Z,11.43
2024-02-04T02:44:54.703Z,10.00
2024-02-04T02:47:24.558Z,11.23
2024-02-04T02:49:54.255Z,14.43
2024-02-04T02:52:22.356Z,9.90
2024-02-04T02:54:51.730Z,8.53
2024-02-04T02:57:19.692Z,8.67
2024-02-04T02:59:47.555Z,7.83
2024-02-04T03:02:16.104Z,8.63
2024-02-04T03:04:43.999Z,9.27
2024-02-04T03:07:11.964Z,9.23
2024-02-04T03:09:39.852Z,9.00
2024-02-04T03:12:09.413Z,12.57
2024-02-04T03:14:37.248Z,11.63
2024-02-04T03:17:05.275Z,10.27
2024-02-04T03:19:33.183Z,11.73
2024-02-04T03:22:01.377Z,17.60
2024-02-04T03:24:29.435Z,13.30
2024-02-04T03:26:57.403Z,12.60
2024-02-04T03:29:26.704Z,9.47
2024-02-04T03:31:54.713Z,16.53
2024-02-04T03:34:22.776Z,11.47
2024-02-04T03:36:50.926Z,10.13
2024-02-04T03:39:18.888Z,10.40
2024-02-04T03:41:46.744Z,11.50
2024-02-04T03:44:14.685Z,9.70
2024-02-04T03:46:43.903Z,8.83
2024-02-04T03:49:11.963Z,15.83
2024-02-04T03:51:40.184Z,13.23
2024-02-04T03:54:08.101Z,9.77
2024-02-04T03:56:36.054Z,10.37
2024-02-04T03:59:04.336Z,8.67
2024-02-04T04:01:32.285Z,11.63
2024-02-04T04:04:01.685Z,8.63
2024-02-04T04:06:29.724Z,15.07
2024-02-04T04:09:00.145Z,16.33
2024-02-04T04:11:28.138Z,12.33
2024-02-04T04:13:56.021Z,8.10
2024-02-04T04:16:24.433Z,11.23
2024-02-04T04:18:52.420Z,11.07
2024-02-04T04:21:21.863Z,13.80
2024-02-04T04:23:49.664Z,8.03
2024-02-04T04:26:17.470Z,12.93
2024-02-04T04:28:45.381Z,14.33
2024-02-04T04:31:13.393Z,11.70
2024-02-04T04:33:41.583Z,9.20
2024-02-04T04:36:09.749Z,12.03
2024-02-04T04:38:39.062Z,9.47
2024-02-04T04:41:08.190Z,9.33
2024-02-04T04:43:39.162Z,10.63
2024-02-04T04:46:07.186Z,10.00
2024-02-04T04:48:35.333Z,7.03
2024-02-04T04:51:03.364Z,11.53
2024-02-04T04:53:31.236Z,11.90
2024-02-04T04:56:00.488Z,9.03
2024-02-04T04:58:28.401Z,7.73
2024-02-04T05:00:56.406Z,10.57
2024-02-04T05:03:24.373Z,8.90
2024-02-04T05:05:52.326Z,9.67
2024-02-04T05:08:20.133Z,9.13
2024-02-04T05:10:47.970Z,4.87
2024-02-04T05:13:17.286Z,7.70
2024-02-04T05:15:45.290Z,7.30
2024-02-04T05:18:13.280Z,12.83
2024-02-04T05:20:41.300Z,7.13
2024-02-04T05:23:09.230Z,10.40
2024-02-04T05:25:37.198Z,10.87
2024-02-04T05:28:05.683Z,9.73
2024-02-04T05:30:34.930Z,10.23
2024-02-04T05:33:02.830Z,8.80
2024-02-04T05:35:30.782Z,9.70
2024-02-04T05:37:58.605Z,7.40
2024-02-04T05:40:26.551Z,6.60
2024-02-04T05:42:57.233Z,8.90
2024-02-04T05:45:53.027Z,11.33
2024-02-04T05:48:21.176Z,7.90
2024-02-04T05:50:49.271Z,7.70
2024-02-04T05:53:17.182Z,15.53
2024-02-04T05:55:45.740Z,9.60
2024-02-04T05:58:15.071Z,6.57
2024-02-04T06:00:44.341Z,7.67
2024-02-04T06:03:12.218Z,11.40
2024-02-04T06:05:40.205Z,10.70
2024-02-04T06:08:08.640Z,8.37
2024-02-04T06:10:36.578Z,8.20
2024-02-04T06:13:04.702Z,11.67
2024-02-04T06:15:32.990Z,6.40
2024-02-04T06:18:02.287Z,8.70
2024-02-04T06:20:30.260Z,11.60
2024-02-04T06:22:59.042Z,9.77
2024-02-04T06:25:27.065Z,16.60
2024-02-04T06:27:55.016Z,13.50
2024-02-04T06:30:22.966Z,10.23
2024-02-04T06:32:51.567Z,10.67
2024-02-04T06:35:20.848Z,14.50
2024-02-04T06:37:48.908Z,7.73
2024-02-04T06:40:17.125Z,16.70
2024-02-04T06:42:45.630Z,17.60
2024-02-04T06:45:13.555Z,11.03
2024-02-04T06:47:41.508Z,12.47
2024-02-04T06:50:14.827Z,9.47
2024-02-04T06:52:44.784Z,12.40
2024-02-04T06:55:12.678Z,11.53
2024-02-04T06:57:41.363Z,7.17
2024-02-04T07:00:10.108Z,11.80
2024-02-04T07:02:37.964Z,13.27
2024-02-04T07:05:14.537Z,9.70
2024-02-04T07:07:43.769Z,9.60
2024-02-04T07:10:11.994Z,8.70
2024-02-04T07:12:40.683Z,10.73
2024-02-04T07:15:09.533Z,10.93
2024-02-04T07:17:37.521Z,6.87
2024-02-04T07:20:06.907Z,7.50
2024-02-04T07:22:37.878Z,8.33
2024-02-04T07:25:08.969Z,11.37
2024-02-04T07:27:36.966Z,8.00
2024-02-04T07:30:05.999Z,8.60
2024-02-04T07:32:35.723Z,8.57
2024-02-04T07:35:03.855Z,4.53
2024-02-04T07:37:31.884Z,5.57
2024-02-04T07:39:59.991Z,7.53
2024-02-04T07:42:29.369Z,8.13
2024-02-04T07:44:57.270Z,8.80
2024-02-04T07:47:25.181Z,8.83
2024-02-04T07:49:53.626Z,6.37
2024-02-04T07:52:21.587Z,7.10
2024-02-04T07:54:49.630Z,7.97
2024-02-04T07:57:17.647Z,7.63
2024-02-04T07:59:46.939Z,7.37
2024-02-04T08:02:14.993Z,5.80
2024-02-04T08:04:43.438Z,5.73
2024-02-04T08:07:11.570Z,6.53
2024-02-04T08:09:39.662Z,6.37
2024-02-04T08:12:07.881Z,6.33
2024-02-04T08:14:35.742Z,3.70
2024-02-04T08:17:05.378Z,5.57
2024-02-04T08:19:33.405Z,6.40
2024-02-04T08:22:01.838Z,6.13
2024-02-04T08:24:30.973Z,9.10
2024-02-04T08:26:59.384Z,11.03
2024-02-04T08:29:28.178Z,4.23
2024-02-04T08:31:56.269Z,7.50
2024-02-04T08:34:27.155Z,6.17
2024-02-04T08:36:55.446Z,7.77
2024-02-04T08:39:23.860Z,5.23
2024-02-04T08:41:51.714Z,9.90
2024-02-04T08:44:27.102Z,3.87
2024-02-04T08:47:04.082Z,8.63
2024-02-04T08:49:33.457Z,5.23
2024-02-04T08:52:01.460Z,3.93
2024-02-04T08:54:29.456Z,7.73
2024-02-04T08:56:57.345Z,5.77
2024-02-04T08:59:25.743Z,7.57
2024-02-04T09:01:53.768Z,6.67
2024-02-04T09:04:21.892Z,9.20
2024-02-04T09:06:51.340Z,2.63
2024-02-04T09:09:19.476Z,2.87
2024-02-04T09:11:47.372Z,3.73
2024-02-04T09:14:15.390Z,3.17
2024-02-04T09:16:43.421Z,7.00
2024-02-04T09:19:11.510Z,3.63
2024-02-04T09:21:39.550Z,4.73
2024-02-04T09:24:09.184Z,7.13
2024-02-04T09:26:37.147Z,4.57
2024-02-04T09:29:05.039Z,8.27
2024-02-04T09:31:33.064Z,8.43
2024-02-04T09:34:01.143Z,9.67
2024-02-04T09:36:29.494Z,6.50
2024-02-04T09:38:58.023Z,6.50
2024-02-04T09:41:28.113Z,6.17
2024-02-04T09:43:56.440Z,4.97
2024-02-04T09:46:24.820Z,5.57
2024-02-04T09:48:53.922Z,4.60
2024-02-04T09:51:22.209Z,3.93
2024-02-04T09:53:54.549Z,4.00
2024-02-04T09:56:26.109Z,8.63
2024-02-04T09:58:55.662Z,4.37
2024-02-04T10:01:25.698Z,6.20
2024-02-04T10:03:53.870Z,5.30
2024-02-04T10:06:22.064Z,7.30
2024-02-04T10:08:50.374Z,2.80
2024-02-04T10:11:18.499Z,7.83
2024-02-04T10:13:47.495Z,7.73
2024-02-04T10:16:17.740Z,11.70
2024-02-04T10:18:47.052Z,5.60
2024-02-04T10:21:19.774Z,4.27
2024-02-04T10:23:48.009Z,5.27
2024-02-04T10:26:16.533Z,7.10
2024-02-04T10:28:47.986Z,7.63
2024-02-04T10:31:17.918Z,7.63
2024-02-04T10:33:46.480Z,4.50
2024-02-04T10:36:14.688Z,3.20
2024-02-04T10:38:42.594Z,4.93
2024-02-04T10:41:16.367Z,6.73
2024-02-04T10:43:45.442Z,9.43
2024-02-04T10:46:21.409Z,6.77
2024-02-04T10:48:54.525Z,7.00
2024-02-04T10:51:27.406Z,5.80
2024-02-04T10:53:57.560Z,5.53
2024-02-04T10:56:31.941Z,8.37
2024-02-04T10:59:03.455Z,7.07
2024-02-04T11:01:33.619Z,6.17
2024-02-04T11:04:03.052Z,6.60
2024-02-04T11:06:32.229Z,9.33
2024-02-04T11:09:01.766Z,6.87
2024-02-04T11:11:30.666Z,6.53
2024-02-04T11:14:06.684Z,11.63
2024-02-04T11:16:53.163Z,6.27
2024-02-04T11:19:43.603Z,7.10
2024-02-04T11:22:26.894Z,15.43
2024-02-04T11:25:16.011Z,7.77
2024-02-04T11:27:44.135Z,8.20
2024-02-04T11:30:12.689Z,9.63
2024-02-04T11:32:44.003Z,9.60
2024-02-04T11:35:12.856Z,7.00
2024-02-04T11:37:43.599Z,13.63
2024-02-04T11:40:17.493Z,9.00
2024-02-04T11:42:45.723Z,6.10
2024-02-04T11:45:15.739Z,10.50
2024-02-04T11:47:45.597Z,8.17
2024-02-04T11:50:13.928Z,9.10
2024-02-04T11:52:45.760Z,9.17
2024-02-04T11:55:19.183Z,8.67
2024-02-04T11:57:47.801Z,7.47
2024-02-04T12:00:20.479Z,11.77
2024-02-04T12:02:49.785Z,7.63
2024-02-04T12:05:18.037Z,6.90
2024-02-04T12:07:46.404Z,8.53
2024-02-04T12:10:14.493Z,9.80
2024-02-04T12:12:42.860Z,8.33
2024-02-04T12:15:11.720Z,12.30
2024-02-04T12:17:40.037Z,8.57
2024-02-04T12:20:10.690Z,11.57
2024-02-04T12:22:38.920Z,10.57
2024-02-04T12:25:08.351Z,10.60
2024-02-04T12:27:37.054Z,8.83
2024-02-04T12:30:06.601Z,9.90
2024-02-04T12:32:34.509Z,11.53
2024-02-04T12:35:03.746Z,14.17
2024-02-04T12:37:35.267Z,11.10
2024-02-04T12:40:04.288Z,10.13
2024-02-04T12:42:32.304Z,13.53
2024-02-04T12:45:00.484Z,8.50
2024-02-04T12:47:29.978Z,11.90
2024-02-04T12:50:03.614Z,13.27
2024-02-04T12:52:36.391Z,9.07
2024-02-04T12:55:05.654Z,12.43
2024-02-04T12:57:34.427Z,11.17
2024-02-04T13:00:10.288Z,13.17
2024-02-04T13:02:38.448Z,10.67
2024-02-04T13:05:06.577Z,10.30
2024-02-04T13:07:36.192Z,8.03
2024-02-04T13:10:04.514Z,11.93
2024-02-04T13:12:35.078Z,8.30
2024-02-04T13:15:03.290Z,12.30
2024-02-04T13:17:31.175Z,6.27
2024-02-04T13:20:00.774Z,5.03
2024-02-04T13:22:29.792Z,8.33
2024-02-04T13:24:59.502Z,12.23
2024-02-04T13:27:27.845Z,8.23
2024-02-04T13:29:55.844Z,7.87
2024-02-04T13:32:23.945Z,10.17
2024-02-04T13:35:02.866Z,9.70
2024-02-04T13:37:38.576Z,15.90
2024-02-04T13:40:09.494Z,10.20
2024-02-04T13:42:38.144Z,10.43
2024-02-04T13:45:07.261Z,9.13
2024-02-04T13:47:35.178Z,9.43
2024-02-04T13:50:04.753Z,7.53
2024-02-04T13:52:33.074Z,10.63
2024-02-04T13:55:01.017Z,10.77
2024-02-04T13:57:30.465Z,10.00
2024-02-04T13:59:58.379Z,15.00
2024-02-04T14:02:27.684Z,7.17
2024-02-04T14:04:56.054Z,15.97
2024-02-04T14:07:24.266Z,10.97
2024-02-04T14:09:52.575Z,9.00
2024-02-04T14:12:20.653Z,9.23
2024-02-04T14:14:50.183Z,13.63
2024-02-04T14:17:18.154Z,10.27
2024-02-04T14:19:50.089Z,12.73
2024-02-04T14:22:19.235Z,9.17
2024-02-04T14:24:48.327Z,8.37
2024-02-04T14:27:16.452Z,12.47
2024-02-04T14:29:44.398Z,8.83
2024-02-04T14:32:13.776Z,15.13
2024-02-04T14:34:41.959Z,15.70
2024-02-04T14:37:13.545Z,10.90
2024-02-04T14:39:43.121Z,14.83
2024-02-04T14:42:11.612Z,12.13
2024-02-04T14:44:39.546Z,13.13
2024-02-04T14:47:07.571Z,13.47
2024-02-04T14:49:37.908Z,19.33
2024-02-04T14:52:06.889Z,17.23
2024-02-04T14:54:34.848Z,19.50
2024-02-04T14:57:02.947Z,13.83
2024-02-04T14:59:31.106Z,15.83
2024-02-04T15:02:02.890Z,15.97
2024-02-04T15:04:48.146Z,16.03
2024-02-04T15:07:16.170Z,16.10
2024-02-04T15:09:44.640Z,12.37
2024-02-04T15:12:15.760Z,12.33
2024-02-04T15:14:44.281Z,15.43
2024-02-04T15:17:12.730Z,12.50
2024-02-04T15:19:41.280Z,18.77
2024-02-04T15:22:11.324Z,13.47
2024-02-04T15:24:39.730Z,15.77
2024-02-04T15:27:09.841Z,20.10
2024-02-04T15:29:39.567Z,15.77
2024-02-04T15:32:08.481Z,16.27
2024-02-04T15:34:37.244Z,15.90
2024-02-04T15:37:05.755Z,13.43
2024-02-04T15:39:36.022Z,16.17
2024-02-04T15:42:05.007Z,15.37
2024-02-04T15:44:34.245Z,14.00
2024-02-04T15:47:03.631Z,12.70
2024-02-04T15:49:32.241Z,23.03
2024-02-04T15:52:01.058Z,20.50
2024-02-04T15:54:30.034Z,19.60
2024-02-04T15:57:09.126Z,18.83
2024-02-04T15:59:49.860Z,15.97
2024-02-04T16:02:18.897Z,19.03
2024-02-04T16:04:47.496Z,12.30
2024-02-04T16:07:17.681Z,20.20
2024-02-04T16:09:49.544Z,17.70
2024-02-04T16:12:21.009Z,19.77
2024-02-04T16:14:51.372Z,22.17
2024-02-04T16:17:20.924Z,11.07
2024-02-04T16:19:49.888Z,18.30
2024-02-04T16:22:20.655Z,21.57
2024-02-04T16:24:49.140Z,23.50
2024-02-04T16:27:18.419Z,17.20
2024-02-04T16:29:46.478Z,14.13
2024-02-04T16:32:15.356Z,15.90
2024-02-04T16:34:43.600Z,17.80
2024-02-04T16:37:11.945Z,14.13
2024-02-04T16:39:42.359Z,19.57
2024-02-04T16:42:13.322Z,21.57
2024-02-04T16:44:42.597Z,20.27
2024-02-04T16:47:10.612Z,20.07
2024-02-04T16:49:40.526Z,15.10
2024-02-04T16:52:09.102Z,24.83
2024-02-04T16:54:37.160Z,13.47
2024-02-04T16:57:10.254Z,17.73
2024-02-04T16:59:38.227Z,15.90
2024-02-04T17:02:07.985Z,11.87
2024-02-04T17:04:36.753Z,16.70
2024-02-04T17:07:05.910Z,13.00
2024-02-04T17:09:34.960Z,17.30
2024-02-04T17:12:03.433Z,13.80
2024-02-04T17:14:31.984Z,11.77
2024-02-04T17:17:08.636Z,13.77
2024-02-04T17:19:49.136Z,11.37
2024-02-04T17:22:20.081Z,17.53
2024-02-04T17:24:51.525Z,16.13
2024-02-04T17:27:20.676Z,14.80
2024-02-04T17:29:51.403Z,15.77
2024-02-04T17:32:26.371Z,15.80
2024-02-04T17:34:56.356Z,10.93
2024-02-04T17:37:24.428Z,18.10
2024-02-04T17:39:52.459Z,13.70
2024-02-04T17:42:20.419Z,11.13
2024-02-04T17:44:48.413Z,9.53
2024-02-04T17:47:16.476Z,11.17
2024-02-04T17:49:44.635Z,14.07
2024-02-04T17:52:14.154Z,14.47
2024-02-04T17:54:42.435Z,16.30
2024-02-04T17:57:11.398Z,11.83
2024-02-04T17:59:41.066Z,11.53
2024-02-04T18:02:09.373Z,14.17
2024-02-04T18:04:37.463Z,16.33
2024-02-04T18:07:05.920Z,11.60
2024-02-04T18:09:39.961Z,13.57
2024-02-04T18:12:08.461Z,15.37
2024-02-04T18:14:36.354Z,17.93
2024-02-04T18:17:07.236Z,14.97
2024-02-04T18:19:35.546Z,16.20
2024-02-04T18:22:03.627Z,14.10
2024-02-04T18:24:32.393Z,13.80
2024-02-04T18:27:01.816Z,18.67
2024-02-04T18:29:30.107Z,20.23
2024-02-04T18:31:58.226Z,13.27
2024-02-04T18:34:26.220Z,17.43
2024-02-04T18:36:54.187Z,12.90
2024-02-04T18:39:22.167Z,15.83
2024-02-04T18:41:50.142Z,21.00
2024-02-04T18:44:19.517Z,15.97
2024-02-04T18:46:49.200Z,17.57
2024-02-04T18:49:17.169Z,12.27
2024-02-04T18:51:45.801Z,10.37
2024-02-04T18:54:13.987Z,12.93
2024-02-04T18:56:46.177Z,17.40
2024-02-04T18:59:14.116Z,11.70
2024-02-04T19:01:44.477Z,11.40
2024-02-04T19:04:13.064Z,17.10
2024-02-04T19:06:42.765Z,12.83
2024-02-04T19:09:13.668Z,15.43
2024-02-04T19:11:43.408Z,18.60
2024-02-04T19:14:12.825Z,12.27
2024-02-04T19:16:41.065Z,23.57
2024-02-04T19:19:11.944Z,20.80
2024-02-04T19:21:44.857Z,14.90
2024-02-04T19:24:13.041Z,15.70
2024-02-04T19:26:41.130Z,13.57
2024-02-04T19:29:09.298Z,17.17
2024-02-04T19:31:37.309Z,13.40
2024-02-04T19:34:07.429Z,17.70
2024-02-04T19:36:37.015Z,13.27
2024-02-04T19:39:06.555Z,13.60
2024-02-04T19:41:34.681Z,14.20
2024-02-04T19:44:02.780Z,15.63
2024-02-04T19:46:30.771Z,13.70
2024-02-04T19:48:58.898Z,19.37
2024-02-04T19:51:26.948Z,22.10
2024-02-04T19:53:56.863Z,16.97
2024-02-04T19:56:24.733Z,20.67
2024-02-04T19:58:52.789Z,17.53
2024-02-04T20:01:20.934Z,22.80
2024-02-04T20:03:49.695Z,17.10
2024-02-04T20:06:17.775Z,15.27
2024-02-04T20:08:45.703Z,17.67
2024-02-04T20:11:15.063Z,20.07
2024-02-04T20:13:44.451Z,14.93
2024-02-04T20:16:12.485Z,14.67
2024-02-04T20:18:40.826Z,15.57
2024-02-04T20:21:08.999Z,15.13
2024-02-04T20:23:37.320Z,11.57
2024-02-04T20:26:05.572Z,16.97
2024-02-04T20:28:34.904Z,15.63
2024-02-04T20:31:04.410Z,24.47
2024-02-04T20:33:33.769Z,12.30
2024-02-04T20:36:01.885Z,16.10
2024-02-04T20:38:30.065Z,10.63
2024-02-04T20:40:58.012Z,15.37
2024-02-04T20:43:26.001Z,16.03
2024-02-04T20:45:56.003Z,17.27
2024-02-04T20:48:23.974Z,13.03
2024-02-04T20:50:51.966Z,15.20
2024-02-04T20:53:19.920Z,17.67
2024-02-04T20:55:47.897Z,15.77
2024-02-04T20:58:17.301Z,13.07
2024-02-04T21:00:45.776Z,14.23
2024-02-04T21:03:15.592Z,16.77
2024-02-04T21:05:44.099Z,22.03
2024-02-04T21:08:12.151Z,14.73
2024-02-04T21:10:40.044Z,12.90
2024-02-04T21:13:17.234Z,13.07
2024-02-04T21:15:45.359Z,22.10
2024-02-04T21:18:14.904Z,19.73
2024-02-04T21:20:43.845Z,17.70
2024-02-04T21:23:11.703Z,20.37
2024-02-04T21:25:39.585Z,24.90
2024-02-04T21:28:07.766Z,15.63
2024-02-04T21:30:35.837Z,23.37
2024-02-04T21:33:03.850Z,15.57
2024-02-04T21:35:33.260Z,8.83
2024-02-04T21:38:01.284Z,16.20
2024-02-04T21:40:29.361Z,18.87
2024-02-04T21:42:57.239Z,19.53
2024-02-04T21:45:25.145Z,18.60
2024-02-04T21:47:53.206Z,15.23
2024-02-04T21:50:21.187Z,13.40
2024-02-04T21:52:50.400Z,17.10
2024-02-04T21:55:18.497Z,20.80
2024-02-04T21:57:46.539Z,24.10
2024-02-04T22:00:15.630Z,15.37
2024-02-04T22:02:43.787Z,13.57
2024-02-04T22:05:11.653Z,19.80
2024-02-04T22:07:39.623Z,22.17
2024-02-04T22:10:11.166Z,20.80
2024-02-04T22:12:39.073Z,20.67
2024-02-04T22:15:09.775Z,19.67
2024-02-04T22:17:38.111Z,14.10
2024-02-04T22:20:07.097Z,20.60
2024-02-04T22:22:35.159Z,21.53
2024-02-04T22:25:03.411Z,23.87
2024-02-04T22:27:32.838Z,22.23
2024-02-04T22:30:00.745Z,21.50
2024-02-04T22:32:28.761Z,18.77
2024-02-04T22:34:57.145Z,22.83
2024-02-04T22:37:25.121Z,19.20
2024-02-04T22:39:53.098Z,18.17
2024-02-04T22:42:21.797Z,22.00
2024-02-04T22:44:51.169Z,15.47
2024-02-04T22:47:19.756Z,16.67
2024-02-04T22:49:47.740Z,17.50
2024-02-04T22:52:16.355Z,20.73
2024-02-04T22:54:44.561Z,15.73
2024-02-04T22:57:12.807Z,24.20
2024-02-04T22:59:41.385Z,19.47
2024-02-04T23:02:11.658Z,13.10
2024-02-04T23:04:39.667Z,14.00
2024-02-04T23:07:08.184Z,21.77
2024-02-04T23:09:36.419Z,22.90
2024-02-04T23:12:04.471Z,16.83
2024-02-04T23:14:32.445Z,18.60
2024-02-04T23:17:00.398Z,19.77
2024-02-04T23:19:29.760Z,20.33
2024-02-04T23:21:57.756Z,21.07
2024-02-04T23:24:25.831Z,16.03
2024-02-04T23:26:53.756Z,17.53
2024-02-04T23:29:21.961Z,19.07
2024-02-04T23:31:49.925Z,19.67
2024-02-04T23:34:17.982Z,23.93
2024-02-04T23:36:47.328Z,17.80
2024-02-04T23:39:19.822Z,27.07
2024-02-04T23:41:47.828Z,17.27
2024-02-04T23:44:16.013Z,25.70
2024-02-04T23:46:43.929Z,23.27
2024-02-04T23:49:13.482Z,20.83
2024-02-04T23:51:41.679Z,23.90
2024-02-04T23:54:11.342Z,23.80
2024-02-04T23:56:39.648Z,24.00
2024-02-04T23:59:07.930Z,20.00
